Arrowhead, Minnesota
Current Conditions -  °F | °C
As of 7:16 PM on Friday 24 Oct 2014 (Local Time) from KCOQ Reporting Station
Clear Clear  
Wind Chill: 59°   Ceiling: Unl
Heat Index: 59°   Visibility: 10mi
Dew Point: 50°   Wind: 7mph
Humidity: 72%   Direction: 210°SSW
Pressure: 29.78"   Gusts: NA
Location:  46.8211°N, 92.6871°W
Report Text: KCOQ 250016Z AUTO 21006KT 10SM CLR 15/10 A2978 RMK AO2
Loading
Personal Weather Stations






























Interactive Weather Map
Tropical Storm Tracking
New forecast layout! Learn more

10-Day Weather Forecast

Advertisements
Track Severe Weather on mobile